Time;durP1;ratioP1;P1;durP2;ratioP2;P2;SDS_P1;SDS_P2;PMS_P1;PMS_P2;Temp;Humidity;BMP_temperature;BMP_pressure;BME280_temperature;BME280_humidity;BME280_pressure;Samples;Min_cycle;Max_cycle;Signal;HPM_P1;HPM_P2
2022/05/20 00:00:44;;;;;;;3.53;2.03;;;;;;;12.53;46.06;95969.03;5064840;28;20225;-67
2022/05/20 00:03:11;;;;;;;3.92;2.55;;;;;;;12.55;46.40;95974.19;5066616;28;20212;-63
2022/05/20 00:05:36;;;;;;;3.78;2.30;;;;;;;12.56;46.55;95973.19;5066125;28;20275;-63
2022/05/20 00:08:03;;;;;;;2.25;2.05;;;;;;;12.38;47.42;95978.38;5068528;28;20208;-67
2022/05/20 00:10:29;;;;;;;5.15;2.15;;;;;;;12.38;47.67;95977.53;5065884;28;20216;-66
2022/05/20 00:12:55;;;;;;;4.32;2.47;;;;;;;12.49;47.58;95972.94;5062379;28;20225;-68
2022/05/20 00:15:23;;;;;;;5.38;2.67;;;;;;;12.35;48.13;95973.38;5055127;28;20229;-66
2022/05/20 00:17:49;;;;;;;5.07;2.40;;;;;;;12.36;48.63;95978.50;5064637;28;20259;-62
2022/05/20 00:20:17;;;;;;;4.80;2.63;;;;;;;12.36;49.33;95980.31;5065344;28;20216;-67
2022/05/20 00:22:42;;;;;;;4.68;2.90;;;;;;;12.31;49.45;95978.06;5066032;28;20268;-67
2022/05/20 00:27:53;;;;;;;4.43;2.42;;;;;;;12.20;49.74;95980.84;5065984;28;20231;-67
2022/05/20 00:30:20;;;;;;;3.78;2.92;;;;;;;12.25;49.92;95983.09;5063358;28;20224;-68
2022/05/20 00:32:48;;;;;;;4.22;2.70;;;;;;;12.13;50.45;95977.09;5062712;28;20225;-66
2022/05/20 00:35:14;;;;;;;5.45;2.95;;;;;;;11.94;51.00;95985.81;5067925;28;20205;-62
2022/05/20 00:37:40;;;;;;;6.82;2.85;;;;;;;12.09;50.56;95995.00;5082346;28;20236;-63
2022/05/20 00:40:09;;;;;;;5.85;3.13;;;;;;;12.09;50.73;95994.16;5062210;28;20831;-68
2022/05/20 00:42:35;;;;;;;5.57;3.40;;;;;;;12.16;50.46;96002.34;5078887;28;20232;-63
2022/05/20 00:45:03;;;;;;;6.45;3.28;;;;;;;11.96;51.27;96004.97;5056965;28;20221;-62
2022/05/20 00:47:29;;;;;;;7.63;3.20;;;;;;;12.02;51.51;95998.31;5053960;28;20201;-63
2022/05/20 00:49:56;;;;;;;6.78;3.42;;;;;;;12.12;51.75;96002.63;5062495;28;20238;-68
2022/05/20 00:52:25;;;;;;;7.93;3.15;;;;;;;12.02;52.27;95998.31;5053355;28;20229;-68
2022/05/20 00:54:55;;;;;;;5.30;3.10;;;;;;;12.03;52.67;96000.81;5060917;28;20278;-68
2022/05/20 00:57:29;;;;;;;6.65;3.10;;;;;;;12.08;52.39;96000.41;5061314;28;20224;-68
2022/05/20 01:00:05;;;;;;;7.10;3.15;;;;;;;12.07;53.04;96001.38;5061660;28;20263;-68
2022/05/20 01:02:33;;;;;;;6.97;3.22;;;;;;;12.07;53.48;96002.22;5063885;28;20701;-63
2022/05/20 01:05:00;;;;;;;7.43;3.03;;;;;;;12.03;53.25;95994.69;5064048;28;20201;-68
2022/05/20 01:07:28;;;;;;;8.63;3.35;;;;;;;11.90;53.71;95997.63;5062069;28;20323;-62
2022/05/20 01:09:54;;;;;;;5.68;2.90;;;;;;;11.73;54.53;95992.94;5061092;28;21872;-63
2022/05/20 01:12:21;;;;;;;6.60;3.20;;;;;;;11.76;54.37;95988.25;5057390;28;20240;-67
2022/05/20 01:14:49;;;;;;;9.23;3.42;;;;;;;11.81;54.56;95991.31;5051474;28;20224;-67
2022/05/20 01:17:15;;;;;;;4.43;3.30;;;;;;;11.88;54.07;95994.28;5062119;28;20205;-66
2022/05/20 01:19:48;;;;;;;8.13;3.47;;;;;;;11.87;54.30;95985.53;5062352;28;20263;-66
2022/05/20 01:22:25;;;;;;;7.20;3.53;;;;;;;11.66;54.80;95976.88;5063265;28;20278;-67
2022/05/20 01:24:51;;;;;;;5.20;2.90;;;;;;;11.68;54.72;95980.19;5060048;28;20251;-66
2022/05/20 01:27:16;;;;;;;5.80;3.03;;;;;;;11.55;54.95;95987.50;5060766;28;20749;-66
2022/05/20 01:29:42;;;;;;;9.18;3.50;;;;;;;11.63;54.46;95990.31;5060774;28;20225;-63
2022/05/20 01:32:07;;;;;;;7.13;3.27;;;;;;;11.63;53.70;95988.50;5078107;28;20208;-66
2022/05/20 01:34:33;;;;;;;8.70;3.45;;;;;;;11.58;53.70;95989.88;5058965;28;20221;-68
2022/05/20 01:36:58;;;;;;;5.43;3.53;;;;;;;11.59;53.78;95987.09;5060384;28;20268;-66
2022/05/20 01:39:24;;;;;;;8.05;3.40;;;;;;;11.30;54.69;95975.63;5051153;28;20237;-63
2022/05/20 01:41:58;;;;;;;6.57;3.57;;;;;;;11.35;54.62;95976.91;5043915;28;20236;-66
2022/05/20 01:44:55;;;;;;;6.73;3.47;;;;;;;11.36;54.32;95989.09;5054074;28;20235;-66
2022/05/20 01:47:30;;;;;;;6.30;3.40;;;;;;;11.39;54.13;95986.22;5060903;28;20241;-68
2022/05/20 01:50:05;;;;;;;6.90;3.00;;;;;;;11.45;53.20;95990.09;5053404;28;20276;-69
2022/05/20 01:52:39;;;;;;;7.22;2.95;;;;;;;11.36;52.11;95977.72;5062146;28;20239;-65
2022/05/20 01:55:16;;;;;;;5.68;2.60;;;;;;;11.23;52.21;95989.31;5062944;28;20219;-67
2022/05/20 01:57:56;;;;;;;8.90;3.28;;;;;;;11.20;53.36;95988.75;5079076;28;20224;-67
2022/05/20 02:00:30;;;;;;;3.13;2.57;;;;;;;11.35;52.16;95987.41;5061663;28;20224;-66
2022/05/20 02:03:17;;;;;;;3.55;2.63;;;;;;;11.39;51.72;95982.75;5062255;28;20220;-68
2022/05/20 02:06:08;;;;;;;5.30;2.85;;;;;;;11.45;52.04;95990.94;5052769;28;20232;-63
2022/05/20 02:08:51;;;;;;;2.67;2.47;;;;;;;11.40;52.33;95987.88;5057902;28;20308;-65
2022/05/20 02:11:39;;;;;;;6.90;2.85;;;;;;;11.16;53.22;95976.81;5065799;28;20197;-67
2022/05/20 02:14:15;;;;;;;4.72;2.97;;;;;;;10.78;55.39;95991.44;5067404;28;20197;-62
2022/05/20 02:16:46;;;;;;;3.88;2.80;;;;;;;10.92;55.79;95998.16;5061166;28;20267;-66
2022/05/20 02:19:39;;;;;;;4.90;3.23;;;;;;;10.98;54.60;95987.13;5058185;28;20225;-62
2022/05/20 02:22:11;;;;;;;5.63;3.33;;;;;;;10.97;53.89;95995.97;5059493;28;20239;-68
2022/05/20 02:24:40;;;;;;;3.83;3.20;;;;;;;11.00;54.98;95986.03;5058998;28;20225;-68
2022/05/20 02:27:11;;;;;;;4.30;3.23;;;;;;;11.12;54.72;95991.19;5063326;28;20224;-68
2022/05/20 02:29:42;;;;;;;5.13;3.10;;;;;;;11.21;54.77;95988.63;5062847;28;20278;-68
2022/05/20 02:32:29;;;;;;;5.30;3.40;;;;;;;11.16;55.20;96001.34;5064233;28;20220;-66
2022/05/20 02:34:55;;;;;;;7.80;3.40;;;;;;;11.09;55.63;96002.81;5077844;28;20357;-67
2022/05/20 02:37:20;;;;;;;4.55;3.00;;;;;;;11.07;55.61;96001.31;5062052;28;20268;-66
2022/05/20 02:39:46;;;;;;;9.55;4.00;;;;;;;10.84;55.28;96006.69;5061807;28;20228;-67
2022/05/20 02:42:12;;;;;;;10.90;3.40;;;;;;;10.87;55.30;96003.81;5063531;28;20236;-66
2022/05/20 02:44:40;;;;;;;6.47;3.15;;;;;;;10.92;55.43;96004.25;5063322;28;20225;-62
2022/05/20 02:47:06;;;;;;;8.02;3.55;;;;;;;10.89;56.17;95999.25;5063167;28;20207;-66
2022/05/20 02:49:32;;;;;;;8.40;3.22;;;;;;;10.97;55.81;95995.97;5063019;28;20218;-67
2022/05/20 02:51:58;;;;;;;9.48;3.42;;;;;;;10.97;55.71;95991.53;5065745;28;20242;-68
2022/05/20 02:54:23;;;;;;;9.85;3.53;;;;;;;10.82;55.34;95992.84;5060796;28;20228;-67
2022/05/20 02:56:49;;;;;;;5.05;3.15;;;;;;;10.85;55.22;95987.31;5062466;28;20247;-65
2022/05/20 03:04:46;;;;;;;6.05;2.97;;;;;;;10.80;53.13;95984.25;5063974;28;20259;-65
2022/05/20 03:07:13;;;;;;;5.80;2.60;;;;;;;10.54;53.67;95976.75;5058797;28;20327;-68
2022/05/20 03:09:39;;;;;;;7.20;2.90;;;;;;;10.48;53.30;95979.06;5059127;28;20289;-62
2022/05/20 03:12:05;;;;;;;6.03;2.70;;;;;;;10.52;53.09;95988.34;5061038;28;20220;-66
2022/05/20 03:14:32;;;;;;;7.25;2.70;;;;;;;10.68;53.22;95988.75;5056666;28;20661;-66
2022/05/20 03:17:02;;;;;;;3.03;2.33;;;;;;;10.68;53.14;95993.16;5058169;28;20655;-65
2022/05/20 03:19:30;;;;;;;4.53;2.65;;;;;;;10.57;53.14;95987.00;5060266;28;20293;-67
2022/05/20 03:22:00;;;;;;;3.35;2.30;;;;;;;10.33;54.41;95983.78;5063230;28;20229;-69
2022/05/20 03:24:26;;;;;;;3.05;2.50;;;;;;;10.25;54.99;95989.63;5061785;28;20217;-66
2022/05/20 03:26:52;;;;;;;6.20;3.00;;;;;;;10.36;55.30;95991.41;5060160;28;20232;-66
2022/05/20 03:29:18;;;;;;;5.17;3.03;;;;;;;10.34;56.23;95988.06;5061821;28;20189;-64
2022/05/20 03:31:44;;;;;;;4.18;2.80;;;;;;;10.04;57.47;95997.47;5051094;28;20197;-67
2022/05/20 03:34:10;;;;;;;3.78;3.05;;;;;;;10.02;58.05;95999.38;5061889;28;20225;-62
2022/05/20 03:36:41;;;;;;;5.80;3.10;;;;;;;10.10;57.64;95996.13;5054675;28;20240;-66
2022/05/20 03:39:09;;;;;;;4.80;2.83;;;;;;;9.90;58.39;96000.41;5062768;28;20240;-63
2022/05/20 03:41:37;;;;;;;7.45;3.33;;;;;;;9.92;58.61;96014.25;5060186;28;20212;-66
2022/05/20 03:44:03;;;;;;;7.63;3.45;;;;;;;10.28;56.87;96009.63;5061823;28;20222;-63
2022/05/20 03:46:30;;;;;;;4.25;3.25;;;;;;;10.62;55.70;96007.66;5063627;28;20225;-62
2022/05/20 03:48:56;;;;;;;8.07;3.43;;;;;;;10.70;55.54;96026.28;5063735;28;20220;-62
2022/05/20 03:51:22;;;;;;;4.67;3.23;;;;;;;10.68;55.04;96019.47;5061816;28;20224;-69
2022/05/20 03:53:47;;;;;;;8.50;3.90;;;;;;;10.21;56.42;96034.69;5059416;28;20231;-68
2022/05/20 03:56:13;;;;;;;4.25;3.20;;;;;;;10.01;57.29;96037.13;5060054;28;20204;-66
2022/05/20 03:58:38;;;;;;;8.20;3.87;;;;;;;10.36;56.55;96042.19;5062085;28;20336;-63
2022/05/20 04:03:51;;;;;;;12.40;3.60;;;;;;;10.51;56.10;96050.63;5059928;28;20258;-66
2022/05/20 04:06:17;;;;;;;7.60;3.22;;;;;;;10.50;56.67;96041.06;5059483;28;20243;-68
2022/05/20 04:08:43;;;;;;;5.07;3.50;;;;;;;10.63;55.97;96043.53;5060201;28;20234;-63
2022/05/20 04:11:11;;;;;;;9.50;3.70;;;;;;;10.70;55.71;96043.88;5065391;28;20204;-62
2022/05/20 04:13:39;;;;;;;5.75;3.42;;;;;;;10.88;54.54;96038.84;5062734;28;20227;-66
2022/05/20 04:16:06;;;;;;;4.18;2.55;;;;;;;10.81;53.04;96041.16;5054830;28;20294;-62
2022/05/20 04:18:31;;;;;;;5.85;2.92;;;;;;;10.84;52.59;96032.19;5064286;28;20225;-63
2022/05/20 04:20:57;;;;;;;6.32;2.85;;;;;;;10.90;52.39;96029.03;5068193;28;20555;-68
2022/05/20 04:23:23;;;;;;;8.00;2.83;;;;;;;10.89;51.56;96030.00;5063937;28;20257;-66
2022/05/20 04:25:49;;;;;;;5.32;2.58;;;;;;;11.12;50.78;96030.69;5065542;28;20350;-65
2022/05/20 04:28:15;;;;;;;3.20;2.90;;;;;;;11.32;49.85;96023.72;5065613;28;20237;-65
2022/05/20 04:30:41;;;;;;;9.45;3.10;;;;;;;11.37;49.95;96029.44;5067697;28;20236;-67
2022/05/20 04:33:08;;;;;;;6.85;2.90;;;;;;;11.40;50.17;96026.53;5067147;28;20259;-65
2022/05/20 04:35:34;;;;;;;5.72;3.00;;;;;;;11.45;49.43;96032.25;5059611;28;20197;-66
2022/05/20 04:37:59;;;;;;;4.50;3.38;;;;;;;11.46;49.75;96040.00;5065426;28;20250;-66
2022/05/20 04:40:25;;;;;;;6.18;3.30;;;;;;;11.38;50.80;96034.56;5066579;28;20224;-62
2022/05/20 04:48:22;;;;;;;5.05;3.20;;;;;;;11.62;50.74;96039.50;5062712;28;20239;-67
2022/05/20 04:50:48;;;;;;;5.53;3.33;;;;;;;11.73;50.70;96043.84;5066411;28;20236;-67
2022/05/20 04:54:49;;;;;;;6.90;3.28;;;;;;;11.73;50.93;96048.28;5064448;28;20224;-66
2022/05/20 04:55:59;;;;;;;7.82;3.58;;;;;;;11.85;51.11;96050.69;5065108;28;20311;-68
2022/05/20 04:58:25;;;;;;;3.83;2.60;;;;;;;11.78;50.44;96060.09;5062678;28;20644;-67
2022/05/20 05:00:51;;;;;;;2.65;2.22;;;;;;;11.52;50.25;96051.81;5064994;28;20283;-67
2022/05/20 05:03:16;;;;;;;8.10;2.85;;;;;;;11.62;50.91;96060.56;5060321;28;20213;-67
2022/05/20 05:05:42;;;;;;;4.50;3.13;;;;;;;11.79;50.83;96051.22;5062811;28;20221;-66
2022/05/20 05:08:07;;;;;;;5.10;3.20;;;;;;;11.86;51.65;96056.81;5062742;28;20204;-64
2022/05/20 05:10:33;;;;;;;4.20;3.40;;;;;;;12.13;50.84;96061.47;5060706;28;20216;-66
2022/05/20 05:13:00;;;;;;;7.72;3.45;;;;;;;12.13;50.58;96062.31;5061334;28;20235;-67
2022/05/20 05:15:25;;;;;;;5.38;3.22;;;;;;;12.20;50.66;96054.69;5063210;28;20252;-67
2022/05/20 05:18:12;;;;;;;8.05;3.20;;;;;;;12.31;50.02;96061.63;5066428;28;20256;-67
2022/05/20 05:20:43;;;;;;;4.10;3.10;;;;;;;12.36;49.97;96059.44;5062295;28;20255;-67
2022/05/20 05:23:08;;;;;;;5.82;3.55;;;;;;;12.30;49.46;96057.34;5067649;28;20208;-66
2022/05/20 05:25:35;;;;;;;8.48;3.10;;;;;;;12.35;49.21;96055.97;5065292;28;20221;-67
2022/05/20 05:28:02;;;;;;;4.68;3.33;;;;;;;12.38;49.44;96061.94;5068948;28;20236;-65
2022/05/20 05:30:28;;;;;;;6.25;3.60;;;;;;;12.44;49.05;96059.56;5054501;28;20227;-68
2022/05/20 05:32:54;;;;;;;9.45;4.22;;;;;;;12.60;48.15;96059.03;5063213;28;20307;-67
2022/05/20 05:35:24;;;;;;;5.28;3.53;;;;;;;12.64;47.56;96057.75;5059740;28;20207;-66
2022/05/20 05:37:49;;;;;;;5.43;3.55;;;;;;;12.74;47.37;96061.25;5059628;28;20236;-67
2022/05/20 05:40:20;;;;;;;5.38;3.58;;;;;;;12.71;47.25;96061.53;5064684;28;20248;-69
2022/05/20 05:42:46;;;;;;;6.15;3.97;;;;;;;12.82;46.07;96065.00;5065167;28;20248;-63
2022/05/20 05:45:14;;;;;;;5.82;3.25;;;;;;;12.84;46.15;96052.50;5063092;28;20217;-70
2022/05/20 05:47:39;;;;;;;6.80;4.10;;;;;;;12.92;45.88;96050.81;5059814;28;20251;-68
2022/05/20 05:50:08;;;;;;;9.02;3.92;;;;;;;12.88;46.53;96046.78;5059892;28;20208;-63
2022/05/20 05:52:35;;;;;;;8.77;4.63;;;;;;;12.84;46.99;96044.59;5062291;28;20213;-67
2022/05/20 05:55:03;;;;;;;6.90;5.05;;;;;;;12.94;47.70;96048.88;5058739;28;20232;-66
2022/05/20 05:57:29;;;;;;;12.73;4.93;;;;;;;13.00;46.65;96043.03;5058236;28;20216;-67
2022/05/20 05:59:55;;;;;;;8.27;4.40;;;;;;;13.11;46.90;96049.13;5061823;28;20224;-62
2022/05/20 06:02:24;;;;;;;6.80;4.25;;;;;;;13.23;46.24;96047.97;5061698;28;20213;-68
2022/05/20 06:04:51;;;;;;;4.85;4.45;;;;;;;13.30;45.60;96050.91;5065673;28;20231;-70
2022/05/20 06:07:17;;;;;;;7.18;4.15;;;;;;;13.20;45.86;96045.63;5061441;28;20315;-66
2022/05/20 06:09:43;;;;;;;5.38;4.10;;;;;;;13.36;45.80;96047.69;5065972;28;20602;-70
2022/05/20 06:12:14;;;;;;;7.78;4.55;;;;;;;13.39;45.66;96053.53;5060778;28;20220;-66
2022/05/20 06:14:40;;;;;;;8.50;6.07;;;;;;;13.43;45.53;96054.06;5063036;28;20351;-70
2022/05/20 06:17:08;;;;;;;5.00;4.05;;;;;;;13.50;46.03;96049.03;5066311;28;20296;-69
2022/05/20 06:19:34;;;;;;;6.63;4.00;;;;;;;13.48;45.33;96043.91;5060958;28;20232;-67
2022/05/20 06:21:59;;;;;;;9.52;4.15;;;;;;;13.55;44.50;96042.38;5061721;28;20237;-62
2022/05/20 06:24:25;;;;;;;6.10;3.60;;;;;;;13.51;43.88;96034.88;5060245;28;20278;-64
2022/05/20 06:26:50;;;;;;;4.85;4.03;;;;;;;13.53;43.73;96038.19;5060667;28;20221;-66
2022/05/20 06:29:16;;;;;;;5.82;3.33;;;;;;;13.62;43.23;96046.06;5061542;28;20224;-65
2022/05/20 06:31:42;;;;;;;3.83;2.80;;;;;;;13.61;41.78;96041.78;5062346;28;20235;-67
2022/05/20 06:34:07;;;;;;;8.30;3.03;;;;;;;13.81;41.84;96039.88;5062522;28;20228;-68
2022/05/20 06:42:01;;;;;;;5.50;3.05;;;;;;;13.85;42.81;96035.13;5062200;28;20711;-65
2022/05/20 06:44:28;;;;;;;4.90;3.80;;;;;;;13.87;43.14;96035.81;5055627;28;20225;-68
2022/05/20 06:46:53;;;;;;;5.80;4.03;;;;;;;14.06;43.71;96038.34;5061198;28;20216;-65
2022/05/20 06:49:19;;;;;;;7.05;3.78;;;;;;;13.96;43.29;96037.56;5059908;28;20256;-62
2022/05/20 06:51:44;;;;;;;3.90;3.08;;;;;;;14.02;42.70;96030.88;5060678;28;20279;-68
2022/05/20 06:54:11;;;;;;;4.93;3.17;;;;;;;14.21;42.30;96037.84;5064546;28;20236;-67
2022/05/20 06:56:38;;;;;;;4.50;3.08;;;;;;;14.26;42.70;96040.88;5061456;28;20220;-63
2022/05/20 06:59:06;;;;;;;6.75;4.18;;;;;;;14.29;43.40;96040.56;5063720;28;20253;-64
2022/05/20 07:01:31;;;;;;;6.63;3.00;;;;;;;14.44;42.38;96038.25;5057989;28;20232;-64
2022/05/20 07:03:58;;;;;;;8.52;3.63;;;;;;;14.45;42.34;96035.44;5057857;28;20220;-65
2022/05/20 07:06:25;;;;;;;7.03;4.28;;;;;;;14.45;43.41;96034.63;5059654;28;20258;-68
2022/05/20 07:08:50;;;;;;;7.82;4.25;;;;;;;14.53;43.16;96030.25;5077656;28;20217;-62
2022/05/20 07:11:21;;;;;;;9.10;4.55;;;;;;;14.68;43.14;96025.28;5068970;28;20227;-65
2022/05/20 07:13:48;;;;;;;9.40;5.20;;;;;;;14.76;42.92;96035.94;5064097;28;20208;-68
2022/05/20 07:16:14;;;;;;;10.77;5.55;;;;;;;14.86;42.91;96027.91;5061659;28;20225;-65
2022/05/20 07:18:40;;;;;;;10.27;4.63;;;;;;;14.97;42.87;96032.97;5062066;28;20223;-67
2022/05/20 07:21:05;;;;;;;10.23;5.68;;;;;;;14.86;43.58;96029.69;5061873;28;20220;-66
2022/05/20 07:23:32;;;;;;;6.78;5.25;;;;;;;14.96;42.98;96033.94;5059896;28;20219;-68
2022/05/20 07:25:58;;;;;;;8.40;4.50;;;;;;;15.00;42.60;96034.47;5065248;28;20208;-66
2022/05/20 07:28:24;;;;;;;6.38;4.40;;;;;;;14.87;42.86;96029.56;5064546;28;20318;-67
2022/05/20 07:30:50;;;;;;;5.93;4.63;;;;;;;14.93;42.43;96028.94;5064806;28;20220;-66
2022/05/20 07:33:15;;;;;;;10.27;4.45;;;;;;;14.99;42.22;96028.34;5062270;28;20236;-65
2022/05/20 07:35:41;;;;;;;11.00;5.35;;;;;;;15.18;42.26;96026.47;5062638;28;20324;-66
2022/05/20 07:38:07;;;;;;;7.45;4.72;;;;;;;15.22;43.00;96033.13;5063668;28;20216;-63
2022/05/20 07:40:33;;;;;;;7.72;4.80;;;;;;;15.29;42.98;96020.94;5060912;28;20251;-67
2022/05/20 07:42:58;;;;;;;13.50;5.85;;;;;;;15.36;43.01;96014.00;5064542;28;20243;-65
2022/05/20 07:45:24;;;;;;;9.98;5.43;;;;;;;15.30;42.88;96017.28;5065531;28;20264;-65
2022/05/20 07:47:50;;;;;;;9.55;5.88;;;;;;;15.35;43.10;96015.00;5062834;28;20306;-67
2022/05/20 07:50:16;;;;;;;12.55;5.47;;;;;;;15.36;44.00;96015.81;5062531;28;20212;-66
2022/05/20 07:55:37;;;;;;;11.18;5.57;;;;;;;15.56;43.08;96011.97;5064048;28;20255;-62
2022/05/20 07:58:05;;;;;;;9.00;5.70;;;;;;;15.71;43.36;96012.22;5068370;28;20220;-65
2022/05/20 08:00:31;;;;;;;8.88;6.38;;;;;;;15.76;42.59;96007.25;5065568;28;20279;-65
2022/05/20 08:03:01;;;;;;;12.05;6.07;;;;;;;15.84;42.86;96007.28;5066868;28;20637;-65
2022/05/20 08:05:29;;;;;;;9.40;5.68;;;;;;;15.91;42.22;96002.19;5054849;28;20328;-65
2022/05/20 08:08:00;;;;;;;15.60;10.30;;;;;;;16.02;41.97;95996.59;5064334;28;20208;-65
2022/05/20 08:10:27;;;;;;;10.82;4.35;;;;;;;16.22;38.50;95998.94;5059264;28;20244;-64
2022/05/20 08:12:56;;;;;;;7.20;3.58;;;;;;;16.17;37.57;95991.50;5076764;28;20220;-64
2022/05/20 08:15:23;;;;;;;8.35;3.47;;;;;;;16.20;37.04;95993.81;5070694;28;20224;-64
2022/05/20 08:17:48;;;;;;;4.25;3.75;;;;;;;16.27;37.55;95999.28;5069701;28;20217;-65
2022/05/20 08:20:22;;;;;;;6.00;3.80;;;;;;;16.42;35.55;95989.72;5069865;28;20215;-65
2022/05/20 08:22:49;;;;;;;5.68;3.88;;;;;;;16.47;36.67;95994.53;5063528;28;20236;-65
2022/05/20 08:25:14;;;;;;;6.93;4.43;;;;;;;16.56;36.43;95996.19;5056479;28;20221;-66
2022/05/20 08:27:40;;;;;;;9.77;4.18;;;;;;;16.62;35.92;95992.88;5068757;28;20231;-63
2022/05/20 08:30:12;;;;;;;5.20;3.58;;;;;;;16.68;34.13;95988.72;5063530;28;20224;-67
2022/05/20 08:32:38;;;;;;;5.93;3.20;;;;;;;16.80;33.32;95984.78;5063522;28;20299;-68
2022/05/20 08:35:07;;;;;;;8.90;3.05;;;;;;;16.87;32.41;95987.59;5068433;28;20296;-62
2022/05/20 08:37:37;;;;;;;2.42;2.20;;;;;;;16.92;31.98;95982.59;5064715;28;20273;-61
2022/05/20 08:40:04;;;;;;;7.82;2.75;;;;;;;16.96;31.37;95976.78;5058436;28;20225;-66
2022/05/20 08:42:33;;;;;;;11.40;2.97;;;;;;;17.00;31.84;95976.44;5062857;28;20351;-66
2022/05/20 08:45:01;;;;;;;4.90;2.97;;;;;;;17.02;32.41;95969.16;5060350;28;20288;-68
2022/05/20 08:47:30;;;;;;;7.85;2.70;;;;;;;17.15;31.46;95980.09;5068503;28;20212;-68
2022/05/20 08:49:58;;;;;;;4.57;2.20;;;;;;;17.16;30.50;95968.44;5066431;28;20204;-62
2022/05/20 08:52:25;;;;;;;4.00;2.55;;;;;;;17.15;30.62;95964.97;5080460;28;20226;-68
2022/05/20 08:54:50;;;;;;;6.50;4.80;;;;;;;17.17;30.20;95957.66;5060789;28;20303;-64
2022/05/20 08:58:01;;;;;;;3.55;2.10;;;;;;;17.20;30.62;95952.00;5065241;28;20316;-68
2022/05/20 09:00:29;;;;;;;4.97;2.28;;;;;;;17.32;30.03;95959.59;5062738;28;20232;-66
2022/05/20 09:02:55;;;;;;;5.07;2.17;;;;;;;17.37;30.15;95951.94;5061102;28;20259;-66
2022/05/20 09:05:31;;;;;;;3.08;2.30;;;;;;;17.45;29.92;95956.41;5060644;28;20200;-65
2022/05/20 09:08:06;;;;;;;4.55;2.00;;;;;;;17.47;29.18;95946.44;5077243;28;20208;-65
2022/05/20 09:10:53;;;;;;;2.40;2.08;;;;;;;17.55;30.16;95949.91;5067881;28;20228;-67
2022/05/20 09:15:43;;;;;;;2.65;2.17;;;;;;;17.57;30.09;95937.25;5065223;28;20310;-66
2022/05/20 09:16:19;;;;;;;6.15;2.70;;;;;;;17.58;32.10;95928.28;5068561;28;20579;-69
2022/05/20 09:18:50;;;;;;;4.40;2.72;;;;;;;17.69;32.68;95929.72;5064177;28;20270;-67
2022/05/20 09:21:59;;;;;;;3.05;2.00;;;;;;;17.91;32.35;95922.84;5079032;28;20229;-71
2022/05/20 09:24:24;;;;;;;2.58;2.13;;;;;;;18.13;29.95;95923.88;4976281;28;20230;-65
2022/05/20 09:27:03;;;;;;;3.25;1.80;;;;;;;18.27;28.38;95922.28;4978079;28;20286;-71
2022/05/20 09:29:31;;;;;;;5.25;3.40;;;;;;;18.36;28.83;95915.03;4971532;28;20235;-64
2022/05/20 09:32:00;;;;;;;4.53;2.60;;;;;;;18.47;30.87;95914.63;4981061;28;20199;-65
2022/05/20 09:34:26;;;;;;;3.08;1.90;;;;;;;18.65;28.60;95906.31;4963002;28;20297;-70
2022/05/20 09:36:58;;;;;;;3.88;1.85;;;;;;;18.78;27.29;95911.06;4958764;28;20232;-62
2022/05/20 09:39:27;;;;;;;3.97;2.15;;;;;;;18.87;26.55;95897.50;4962552;28;20468;-67
2022/05/20 09:41:58;;;;;;;2.42;2.00;;;;;;;18.92;26.19;95897.78;4963327;28;20240;-65
2022/05/20 09:44:36;;;;;;;4.53;2.08;;;;;;;19.03;26.93;95887.66;4970179;28;20242;-64
2022/05/20 09:47:04;;;;;;;3.97;1.83;;;;;;;19.32;26.33;95889.50;4972187;28;20219;-62
2022/05/20 09:50:02;;;;;;;3.33;2.05;;;;;;;19.46;28.13;95891.34;4966070;28;20238;-63
2022/05/20 09:52:33;;;;;;;3.13;1.90;;;;;;;19.74;24.31;95888.84;4961961;28;20234;-62
2022/05/20 09:55:20;;;;;;;4.13;2.00;;;;;;;19.83;23.67;95887.72;4961871;28;20263;-62
2022/05/20 09:57:46;;;;;;;4.38;1.80;;;;;;;19.96;22.30;95888.88;4908761;29;20261;-62
2022/05/20 10:00:26;;;;;;;3.47;1.88;;;;;;;19.97;23.45;95882.53;4930238;28;20325;-67
2022/05/20 10:03:16;;;;;;;4.18;1.88;;;;;;;20.11;23.09;95884.31;4944149;28;20248;-68
2022/05/20 10:05:51;;;;;;;1.83;1.63;;;;;;;20.37;24.63;95874.91;4945631;28;20307;-66
2022/05/20 10:08:24;;;;;;;5.93;2.40;;;;;;;20.68;25.92;95875.41;4925564;28;20220;-63
2022/05/20 10:10:56;;;;;;;3.05;2.00;;;;;;;20.80;24.50;95872.22;4946856;28;20302;-64
2022/05/20 10:13:40;;;;;;;7.70;2.20;;;;;;;20.93;24.20;95869.66;4926924;29;20240;-63
2022/05/20 10:16:24;;;;;;;6.50;2.40;;;;;;;21.02;22.92;95868.47;4929227;28;20252;-68
2022/05/20 10:18:57;;;;;;;5.15;2.60;;;;;;;21.00;23.47;95856.31;4913977;28;20237;-64
2022/05/20 10:21:47;;;;;;;3.75;1.80;;;;;;;21.12;25.39;95860.09;4931355;28;20256;-66
2022/05/20 10:24:34;;;;;;;3.40;1.88;;;;;;;21.22;23.34;95855.19;4884921;29;20238;-67
2022/05/20 10:27:04;;;;;;;2.60;1.52;;;;;;;21.34;22.41;95852.81;4872389;29;20231;-63
2022/05/20 10:32:36;;;;;;;3.53;2.20;;;;;;;21.50;22.58;95841.78;4923533;29;20240;-63
2022/05/20 10:35:13;;;;;;;6.38;1.95;;;;;;;21.67;21.64;95844.09;4927078;28;20208;-62
2022/05/20 10:38:00;;;;;;;3.42;1.90;;;;;;;21.57;21.46;95836.44;4950193;28;20250;-63
2022/05/20 10:40:34;;;;;;;1.98;1.52;;;;;;;21.57;21.67;95831.09;4964103;28;20227;-62
2022/05/20 10:43:21;;;;;;;4.60;2.22;;;;;;;21.67;21.10;95830.72;4944816;28;20232;-69
2022/05/20 10:48:56;;;;;;;4.97;2.10;;;;;;;22.02;20.79;95823.41;4960096;28;20289;-69
2022/05/20 10:51:41;;;;;;;4.28;1.70;;;;;;;22.09;21.43;95823.41;4961526;28;20223;-65
2022/05/20 10:54:43;;;;;;;5.13;1.83;;;;;;;22.30;22.34;95828.63;4964995;28;20354;-68
2022/05/20 10:57:43;;;;;;;5.82;1.75;;;;;;;22.28;18.30;95821.81;4950931;28;20243;-68
2022/05/20 11:00:13;;;;;;;4.80;1.80;;;;;;;22.45;19.97;95815.88;4926401;28;20236;-69
2022/05/20 11:03:00;;;;;;;39.90;7.00;;;;;;;22.71;16.95;95805.31;5006011;28;20236;-69
2022/05/20 11:05:53;;;;;;;35.97;6.03;;;;;;;22.84;17.96;95800.75;5022637;28;20214;-66
2022/05/20 11:08:40;;;;;;;714.42;99.45;;;;;;;23.13;16.36;95804.03;5005789;28;20224;-68
2022/05/20 11:11:31;;;;;;;5.97;2.13;;;;;;;23.08;14.92;95780.50;5010941;28;20782;-70
2022/05/20 11:14:00;;;;;;;3.90;1.83;;;;;;;23.18;15.91;95790.81;5030856;28;20226;-68
2022/05/20 11:16:37;;;;;;;28.88;5.72;;;;;;;23.45;16.03;95790.69;5017553;28;20234;-65
2022/05/20 11:19:09;;;;;;;5.53;2.08;;;;;;;23.48;16.56;95785.72;5005307;28;20282;-63
2022/05/20 11:22:00;;;;;;;3.00;1.45;;;;;;;23.51;14.08;95784.47;5018803;28;20230;-68
2022/05/20 11:24:53;;;;;;;4.28;1.40;;;;;;;23.79;14.12;95786.84;5008818;28;20651;-65
2022/05/20 11:27:34;;;;;;;42.13;8.20;;;;;;;23.95;13.55;95785.47;5023193;28;20297;-69
2022/05/20 11:30:30;;;;;;;4.50;1.65;;;;;;;24.06;14.16;95776.75;5023485;28;20392;-67
2022/05/20 11:33:07;;;;;;;2.75;1.40;;;;;;;24.05;12.56;95777.78;5024425;28;20300;-67
2022/05/20 11:35:47;;;;;;;4.70;1.60;;;;;;;24.08;12.97;95766.59;5020386;28;20205;-68
2022/05/20 11:38:25;;;;;;;9.60;2.40;;;;;;;24.31;15.04;95766.00;5035771;28;20217;-62
2022/05/20 11:41:26;;;;;;;2.85;1.90;;;;;;;24.27;12.27;95756.75;5043716;28;20237;-69
2022/05/20 11:44:23;;;;;;;4.45;1.40;;;;;;;24.19;15.00;95755.16;5060948;28;20230;-63
2022/05/20 11:47:12;;;;;;;1.50;1.40;;;;;;;24.42;13.18;95753.72;5062668;28;20224;-69
2022/05/20 11:50:06;;;;;;;3.03;1.40;;;;;;;24.47;12.55;95756.59;5081313;28;20216;-62
2022/05/20 11:52:47;;;;;;;3.20;1.38;;;;;;;24.55;13.41;95742.88;5059360;28;20401;-65
2022/05/20 11:55:33;;;;;;;2.38;1.20;;;;;;;24.61;12.41;95744.66;5075522;28;20227;-70
2022/05/20 11:58:01;;;;;;;2.70;1.38;;;;;;;24.62;13.89;95743.63;5060236;28;20802;-69
2022/05/20 12:00:29;;;;;;;3.10;1.90;;;;;;;24.98;15.02;95741.19;5058937;28;20228;-68
2022/05/20 12:03:00;;;;;;;3.45;2.00;;;;;;;25.34;14.52;95739.53;5072264;28;20217;-67
2022/05/20 12:05:31;;;;;;;4.18;1.60;;;;;;;25.57;14.15;95738.84;5062051;28;20216;-65
2022/05/20 12:07:57;;;;;;;3.30;1.50;;;;;;;25.54;14.01;95740.13;5064001;28;20270;-65
2022/05/20 12:10:31;;;;;;;2.75;1.95;;;;;;;25.52;12.92;95732.25;5061886;28;20217;-68
2022/05/20 12:13:17;;;;;;;2.67;1.45;;;;;;;24.52;12.46;95727.19;5056897;28;20270;-67
2022/05/20 12:16:09;;;;;;;2.45;1.42;;;;;;;24.39;13.45;95719.22;5061098;28;20228;-63
2022/05/20 12:24:38;;;;;;;3.22;1.30;;;;;;;25.59;13.38;95716.03;5062499;28;20223;-67
2022/05/20 12:27:11;;;;;;;1.85;1.23;;;;;;;26.08;12.92;95705.16;5059999;28;20232;-64